createdAt,value
2018-11-10T00:02:35.406Z,96.63
2018-11-10T00:12:39.742Z,99.03
2018-11-10T00:22:44.010Z,97.13
2018-11-10T00:32:48.401Z,93.30
2018-11-10T00:42:52.677Z,99.90
2018-11-10T00:52:57.064Z,112.70
2018-11-10T01:03:01.360Z,106.03
2018-11-10T01:13:05.846Z,93.50
2018-11-10T01:23:10.177Z,96.63
2018-11-10T01:33:14.474Z,96.40
2018-11-10T01:43:18.825Z,102.33
2018-11-10T01:53:23.274Z,108.77
2018-11-10T02:03:27.682Z,95.70
2018-11-10T02:13:31.959Z,104.63
2018-11-10T02:23:36.278Z,99.47
2018-11-10T02:33:40.631Z,108.97
2018-11-10T02:43:44.962Z,109.17
2018-11-10T02:53:49.292Z,96.30
2018-11-10T03:03:53.537Z,99.43
2018-11-10T03:13:57.806Z,110.97
2018-11-10T03:24:02.242Z,95.03
2018-11-10T03:34:06.600Z,108.03
2018-11-10T03:44:10.903Z,84.60
2018-11-10T03:54:15.211Z,96.83
2018-11-10T04:04:19.550Z,90.07
2018-11-10T04:14:23.802Z,87.33
2018-11-10T04:24:28.083Z,100.60
2018-11-10T04:34:32.369Z,94.87
2018-11-10T04:44:36.741Z,106.50
2018-11-10T04:54:41.094Z,103.03
2018-11-10T05:04:45.408Z,99.67
2018-11-10T05:14:49.801Z,98.43
2018-11-10T05:24:54.110Z,103.30
2018-11-10T05:34:58.425Z,97.07
2018-11-10T05:45:03.033Z,96.40
2018-11-10T05:55:08.029Z,112.33
2018-11-10T06:05:12.842Z,103.20
2018-11-10T06:15:17.443Z,102.70
2018-11-10T06:25:21.850Z,102.77
2018-11-10T06:35:26.215Z,103.50
2018-11-10T06:45:30.578Z,102.93
2018-11-10T06:55:35.107Z,99.43
2018-11-10T07:05:39.541Z,96.77
2018-11-10T07:15:43.970Z,109.97
2018-11-10T07:25:48.326Z,118.77
2018-11-10T07:35:52.742Z,106.37
2018-11-10T07:45:57.259Z,98.70
2018-11-10T07:56:01.779Z,98.70
2018-11-10T08:06:06.305Z,109.43
2018-11-10T08:16:10.674Z,97.53
2018-11-10T08:26:15.129Z,112.77
2018-11-10T08:36:19.797Z,110.53
2018-11-10T08:46:24.100Z,108.37
2018-11-10T08:56:28.826Z,113.77
2018-11-10T09:06:33.172Z,110.73
2018-11-10T09:16:37.641Z,120.27
2018-11-10T09:26:42.066Z,112.47
2018-11-10T09:36:46.366Z,107.67
2018-11-10T09:46:50.686Z,104.83
2018-11-10T09:56:54.955Z,111.40
2018-11-10T10:07:00.182Z,115.70
2018-11-10T10:17:04.490Z,120.93
2018-11-10T10:27:08.929Z,112.50
2018-11-10T10:37:13.406Z,121.50
2018-11-10T10:47:17.764Z,104.33
2018-11-10T10:57:22.126Z,110.63
2018-11-10T11:07:26.697Z,135.70
2018-11-10T11:17:30.966Z,116.43
2018-11-10T11:27:35.303Z,119.03
2018-11-10T11:37:40.100Z,121.67
2018-11-10T11:47:44.510Z,126.40
2018-11-10T11:57:48.863Z,104.20
2018-11-10T12:07:53.130Z,118.97
2018-11-10T12:17:57.465Z,104.50
2018-11-10T12:28:01.743Z,110.93
2018-11-10T12:38:06.162Z,115.27
2018-11-10T12:48:10.546Z,105.07
2018-11-10T12:58:14.873Z,104.67
2018-11-10T13:08:19.190Z,110.27
2018-11-10T13:18:23.446Z,122.63
2018-11-10T13:28:27.777Z,124.83
2018-11-10T13:38:32.178Z,119.60
2018-11-10T13:48:36.615Z,116.43
2018-11-10T13:58:40.899Z,133.47
2018-11-10T14:08:45.222Z,139.33
2018-11-10T14:18:49.616Z,133.30
2018-11-10T14:28:53.931Z,123.87
2018-11-10T14:38:58.238Z,111.63
2018-11-10T14:49:02.554Z,107.17
2018-11-10T14:59:07.866Z,116.60
2018-11-10T15:09:12.189Z,109.80
2018-11-10T15:19:16.569Z,109.23
2018-11-10T15:29:20.862Z,116.37
2018-11-10T15:39:25.182Z,110.00
2018-11-10T15:49:29.640Z,115.40
2018-11-10T15:59:33.973Z,130.20
2018-11-10T16:09:38.311Z,116.00
2018-11-10T16:19:42.702Z,126.10
2018-11-10T16:29:47.033Z,133.33
2018-11-10T16:39:51.492Z,119.27
2018-11-10T16:49:56.750Z,115.03
2018-11-10T17:00:01.282Z,129.07
2018-11-10T17:10:07.281Z,136.33
2018-11-10T17:20:14.010Z,116.20
2018-11-10T17:30:20.645Z,118.60
2018-11-10T17:40:25.011Z,122.67
2018-11-10T17:50:29.315Z,121.10
2018-11-10T18:00:33.628Z,120.87
2018-11-10T18:10:38.044Z,141.77
2018-11-10T18:20:42.507Z,131.70
2018-11-10T18:30:46.864Z,120.13
2018-11-10T18:40:51.178Z,117.97
2018-11-10T18:50:55.451Z,108.90
2018-11-10T19:00:59.829Z,119.17
2018-11-10T19:11:04.227Z,118.57
2018-11-10T19:21:08.561Z,108.27
2018-11-10T19:31:12.879Z,108.47
2018-11-10T19:41:17.359Z,113.80
2018-11-10T19:51:21.882Z,116.43
2018-11-10T20:01:26.034Z,106.73
2018-11-10T20:11:30.266Z,110.23
2018-11-10T20:21:34.597Z,111.60
2018-11-10T20:31:39.009Z,100.63
2018-11-10T20:41:43.296Z,106.93
2018-11-10T20:51:47.718Z,106.47
2018-11-10T21:01:52.106Z,110.63
2018-11-10T21:11:56.450Z,104.63
2018-11-10T21:22:00.822Z,99.10
2018-11-10T21:32:05.362Z,112.93
2018-11-10T21:42:09.709Z,105.00
2018-11-10T21:52:14.186Z,108.70
2018-11-10T22:02:18.578Z,100.47
2018-11-10T22:12:22.884Z,108.27
2018-11-10T22:22:27.291Z,109.93
2018-11-10T22:32:31.766Z,109.83
2018-11-10T22:42:36.850Z,105.90
2018-11-10T22:52:41.157Z,118.23
2018-11-10T23:02:48.039Z,110.30
2018-11-10T23:12:53.141Z,115.00
2018-11-10T23:22:57.640Z,117.97
2018-11-10T23:33:01.890Z,116.80
2018-11-10T23:43:07.161Z,111.07
2018-11-10T23:53:11.579Z,96.63
